Time;durP1;ratioP1;P1;durP2;ratioP2;P2;SDS_P1;SDS_P2;PMS_P1;PMS_P2;Temp;Humidity;BMP_temperature;BMP_pressure;BME280_temperature;BME280_humidity;BME280_pressure;Samples;Min_cycle;Max_cycle;Signal;HPM_P1;HPM_P2
2021/05/26 00:01:00;;;;;;;9.85;3.15;;;12.70;99.90;;;;;;5059439;28;20561;-65
2021/05/26 00:03:26;;;;;;;10.90;3.00;;;12.50;99.90;;;;;;5065656;28;20075;-64
2021/05/26 00:05:52;;;;;;;14.85;3.67;;;12.60;99.90;;;;;;5050740;28;20505;-64
2021/05/26 00:08:31;;;;;;;9.90;2.75;;;12.50;99.90;;;;;;5058523;28;20047;-64
2021/05/26 00:10:58;;;;;;;16.23;4.45;;;12.30;99.90;;;;;;5055642;28;20116;-64
2021/05/26 00:13:24;;;;;;;13.65;3.75;;;12.40;99.90;;;;;;5057664;28;20021;-65
2021/05/26 00:15:50;;;;;;;13.43;3.90;;;12.20;99.90;;;;;;5054811;28;20087;-64
2021/05/26 00:18:16;;;;;;;8.45;3.40;;;12.20;99.90;;;;;;5058857;28;20421;-65
2021/05/26 00:20:43;;;;;;;11.00;3.45;;;12.10;99.90;;;;;;5053572;28;20044;-64
2021/05/26 00:23:09;;;;;;;10.05;3.53;;;12.00;99.90;;;;;;5059444;28;20096;-64
2021/05/26 00:25:34;;;;;;;11.27;3.10;;;12.00;99.90;;;;;;5053248;28;20032;-65
2021/05/26 00:28:01;;;;;;;11.48;3.75;;;12.20;99.90;;;;;;5059579;28;20040;-65
2021/05/26 00:30:29;;;;;;;14.52;3.78;;;12.10;99.90;;;;;;5053323;28;20212;-65
2021/05/26 00:32:56;;;;;;;11.02;2.97;;;12.10;99.90;;;;;;5059901;28;20029;-67
2021/05/26 00:35:22;;;;;;;10.88;3.33;;;12.10;99.90;;;;;;5053361;28;20032;-65
2021/05/26 00:37:47;;;;;;;12.82;3.10;;;12.00;99.90;;;;;;5058979;28;20517;-65
2021/05/26 00:40:13;;;;;;;12.57;3.22;;;11.90;99.90;;;;;;5052925;28;20028;-65
2021/05/26 00:42:39;;;;;;;6.72;3.08;;;12.00;99.90;;;;;;5059540;28;20439;-65
2021/05/26 00:45:06;;;;;;;12.27;3.72;;;12.00;99.90;;;;;;5052348;28;20016;-65
2021/05/26 00:47:51;;;;;;;14.20;4.00;;;11.90;99.90;;;;;;5059602;28;20424;-65
2021/05/26 00:50:21;;;;;;;13.27;3.85;;;11.90;99.90;;;;;;5052726;28;20032;-65
2021/05/26 00:52:47;;;;;;;11.18;3.35;;;11.80;99.90;;;;;;5058893;28;20100;-64
2021/05/26 00:55:16;;;;;;;7.13;3.03;;;11.70;99.90;;;;;;5052596;28;20563;-65
2021/05/26 00:57:42;;;;;;;11.25;2.92;;;11.50;99.90;;;;;;5058707;28;20560;-65
2021/05/26 01:00:13;;;;;;;7.68;2.65;;;11.70;99.90;;;;;;5052658;28;20107;-65
2021/05/26 01:02:39;;;;;;;7.45;3.13;;;11.50;99.90;;;;;;5059131;28;20052;-64
2021/05/26 01:05:09;;;;;;;8.70;3.55;;;11.60;99.90;;;;;;5051963;28;20631;-64
2021/05/26 01:07:34;;;;;;;8.82;3.08;;;11.50;99.90;;;;;;5059020;28;20040;-64
2021/05/26 01:10:01;;;;;;;9.18;3.10;;;11.50;99.90;;;;;;5051075;28;20021;-64
2021/05/26 01:12:27;;;;;;;9.80;3.25;;;11.40;99.90;;;;;;5059404;28;20452;-65
2021/05/26 01:14:53;;;;;;;10.90;2.97;;;11.40;99.90;;;;;;5050496;28;20497;-65
2021/05/26 01:17:19;;;;;;;8.02;3.35;;;11.40;99.90;;;;;;5061155;28;20032;-64
2021/05/26 01:19:44;;;;;;;10.45;3.67;;;11.40;99.90;;;;;;5050095;28;20025;-64
2021/05/26 01:22:10;;;;;;;8.15;3.10;;;11.20;99.90;;;;;;5060979;28;20021;-65
2021/05/26 01:24:36;;;;;;;9.88;3.22;;;11.20;99.90;;;;;;5050096;28;20021;-66
2021/05/26 01:27:03;;;;;;;12.00;3.25;;;11.10;99.90;;;;;;5060906;28;20456;-65
2021/05/26 01:29:29;;;;;;;12.25;3.10;;;11.40;99.90;;;;;;5049503;28;20051;-65
2021/05/26 01:31:55;;;;;;;10.43;3.45;;;11.30;99.90;;;;;;5060747;28;20060;-65
2021/05/26 01:34:21;;;;;;;10.00;3.28;;;11.20;99.90;;;;;;5049987;28;20441;-65
2021/05/26 01:36:47;;;;;;;8.02;2.67;;;11.30;99.90;;;;;;5060244;28;20131;-64
2021/05/26 01:39:15;;;;;;;13.75;2.97;;;11.30;99.90;;;;;;5049708;28;20108;-65
2021/05/26 01:41:42;;;;;;;11.27;3.33;;;11.50;99.90;;;;;;5059540;28;20028;-65
2021/05/26 01:44:08;;;;;;;9.95;3.35;;;11.30;99.90;;;;;;5050427;28;20091;-65
2021/05/26 01:46:35;;;;;;;9.05;2.85;;;11.50;99.90;;;;;;5058837;28;20442;-64
2021/05/26 01:49:01;;;;;;;15.90;3.63;;;11.30;99.90;;;;;;5051442;28;20086;-65
2021/05/26 01:51:26;;;;;;;9.48;3.65;;;11.40;99.90;;;;;;5057532;28;20028;-65
2021/05/26 01:53:52;;;;;;;14.23;3.75;;;11.50;99.90;;;;;;5052452;28;20532;-64
2021/05/26 01:56:23;;;;;;;11.93;4.18;;;11.50;99.90;;;;;;5056301;28;20016;-64
2021/05/26 01:58:50;;;;;;;13.30;3.92;;;11.40;99.90;;;;;;5052670;28;20025;-64
2021/05/26 02:01:17;;;;;;;11.85;4.35;;;11.40;99.90;;;;;;5056157;28;20039;-64
2021/05/26 02:03:44;;;;;;;14.82;4.47;;;11.60;99.90;;;;;;5053707;28;20029;-64
2021/05/26 02:06:14;;;;;;;16.13;4.63;;;11.60;99.90;;;;;;5055138;28;20029;-64
2021/05/26 02:08:41;;;;;;;13.52;3.85;;;11.50;99.90;;;;;;5057105;28;20033;-64
2021/05/26 02:13:51;;;;;;;13.13;4.57;;;11.60;99.90;;;;;;5056570;28;20047;-64
2021/05/26 02:16:17;;;;;;;17.65;4.13;;;11.70;99.90;;;;;;5060107;28;20028;-64
2021/05/26 02:18:43;;;;;;;16.60;4.70;;;11.60;99.90;;;;;;5057924;28;20024;-64
2021/05/26 02:21:09;;;;;;;20.80;4.50;;;11.70;99.90;;;;;;5058705;28;20044;-64
2021/05/26 02:23:34;;;;;;;13.60;4.55;;;11.60;99.90;;;;;;5058620;28;20025;-64
2021/05/26 02:26:00;;;;;;;13.15;4.40;;;11.70;99.90;;;;;;5057937;28;20689;-65
2021/05/26 02:28:26;;;;;;;16.35;4.50;;;11.70;99.90;;;;;;5059445;28;20040;-64
2021/05/26 02:30:52;;;;;;;14.55;4.88;;;11.70;99.90;;;;;;5056647;28;20082;-64
2021/05/26 02:33:18;;;;;;;16.10;4.70;;;11.60;99.90;;;;;;5060975;28;20114;-64
2021/05/26 02:35:43;;;;;;;21.25;4.90;;;11.60;99.90;;;;;;5055447;28;20028;-64
2021/05/26 02:38:09;;;;;;;15.52;4.43;;;11.70;99.90;;;;;;5063672;28;20406;-64
2021/05/26 02:40:35;;;;;;;17.02;4.90;;;11.70;99.90;;;;;;5067151;28;20108;-64
2021/05/26 02:43:02;;;;;;;12.20;4.20;;;11.70;99.90;;;;;;5061527;28;20032;-64
2021/05/26 02:45:27;;;;;;;12.52;4.10;;;11.60;99.90;;;;;;5055293;28;20028;-65
2021/05/26 02:47:53;;;;;;;18.25;4.85;;;11.60;99.90;;;;;;5061824;28;20044;-64
2021/05/26 02:50:19;;;;;;;16.13;4.68;;;11.50;99.90;;;;;;5055169;28;20028;-65
2021/05/26 02:52:46;;;;;;;14.05;4.72;;;11.60;99.90;;;;;;5061202;28;20506;-64
2021/05/26 02:55:14;;;;;;;26.83;5.18;;;11.70;99.90;;;;;;5055130;28;20025;-64
2021/05/26 02:57:40;;;;;;;13.80;4.93;;;11.70;99.90;;;;;;5043526;28;20055;-64
2021/05/26 03:00:08;;;;;;;15.32;4.75;;;11.70;99.90;;;;;;5054102;28;20020;-64
2021/05/26 03:02:34;;;;;;;16.60;4.45;;;11.50;99.90;;;;;;5061907;28;20071;-64
2021/05/26 03:04:59;;;;;;;12.80;5.03;;;11.50;99.90;;;;;;5053540;28;20033;-64
2021/05/26 03:07:25;;;;;;;13.63;4.60;;;11.50;99.90;;;;;;5062882;28;20076;-64
2021/05/26 03:09:51;;;;;;;16.02;4.13;;;11.50;99.90;;;;;;5052785;28;20520;-64
2021/05/26 03:12:16;;;;;;;14.65;5.28;;;11.50;99.90;;;;;;5062593;28;20025;-64
2021/05/26 03:14:42;;;;;;;23.30;5.20;;;11.30;99.90;;;;;;5052270;28;20017;-65
2021/05/26 03:17:08;;;;;;;13.73;4.63;;;11.50;99.90;;;;;;5063818;28;20029;-64
2021/05/26 03:19:34;;;;;;;13.50;4.65;;;11.40;99.90;;;;;;5051393;28;20021;-64
2021/05/26 03:22:00;;;;;;;16.40;4.78;;;11.20;99.90;;;;;;5063419;28;20078;-65
2021/05/26 03:24:26;;;;;;;15.73;5.20;;;11.40;99.90;;;;;;5052489;28;20635;-64
2021/05/26 03:26:51;;;;;;;16.10;4.55;;;11.20;99.90;;;;;;5062695;28;20579;-64
2021/05/26 03:29:17;;;;;;;20.38;5.10;;;11.20;99.90;;;;;;5051979;28;20021;-64
2021/05/26 03:31:43;;;;;;;15.32;4.75;;;11.40;99.90;;;;;;5062185;28;20059;-65
2021/05/26 03:34:10;;;;;;;18.80;4.90;;;11.40;99.90;;;;;;5052848;28;20053;-64
2021/05/26 03:36:42;;;;;;;12.85;4.65;;;11.30;99.90;;;;;;5061066;28;20041;-64
2021/05/26 03:39:09;;;;;;;11.27;4.57;;;11.30;99.90;;;;;;5052830;28;20103;-64
2021/05/26 03:41:36;;;;;;;15.80;4.72;;;11.30;99.90;;;;;;5060683;28;20051;-64
2021/05/26 03:44:01;;;;;;;13.25;4.65;;;11.40;99.90;;;;;;5053113;28;20640;-64
2021/05/26 03:46:27;;;;;;;19.75;5.18;;;11.40;99.90;;;;;;5059074;28;20017;-64
2021/05/26 03:48:53;;;;;;;17.73;4.85;;;11.20;99.90;;;;;;5054071;28;20040;-64
2021/05/26 03:51:19;;;;;;;24.35;5.07;;;11.10;99.90;;;;;;5058396;28;20024;-64
2021/05/26 03:53:45;;;;;;;18.17;5.05;;;11.20;99.90;;;;;;5055545;28;20075;-64
2021/05/26 03:56:11;;;;;;;10.68;4.82;;;11.10;99.90;;;;;;5057030;28;20024;-64
2021/05/26 03:58:37;;;;;;;17.70;5.57;;;11.00;99.90;;;;;;5060031;28;20035;-64
2021/05/26 04:01:03;;;;;;;19.80;5.45;;;10.90;99.90;;;;;;5067206;28;20401;-64
2021/05/26 04:03:29;;;;;;;17.40;5.05;;;11.00;99.90;;;;;;5071079;28;20013;-63
2021/05/26 04:05:55;;;;;;;15.30;5.03;;;11.10;99.90;;;;;;5067685;28;20021;-64
2021/05/26 04:08:21;;;;;;;15.68;5.30;;;10.90;99.90;;;;;;5068734;28;20044;-64
2021/05/26 04:10:48;;;;;;;12.40;4.88;;;11.00;99.90;;;;;;5066870;28;20605;-64
2021/05/26 04:13:13;;;;;;;17.52;5.03;;;11.10;99.90;;;;;;5062905;28;20074;-64
2021/05/26 04:15:39;;;;;;;20.35;5.53;;;11.10;99.90;;;;;;5068979;28;20024;-64
2021/05/26 04:18:08;;;;;;;21.13;5.70;;;11.20;99.90;;;;;;5061954;28;20036;-64
2021/05/26 04:20:35;;;;;;;13.25;5.40;;;11.10;99.90;;;;;;5066960;28;20021;-64
2021/05/26 04:23:02;;;;;;;14.93;5.10;;;10.90;99.90;;;;;;5068625;28;20025;-64
2021/05/26 04:25:28;;;;;;;17.05;5.68;;;10.90;99.90;;;;;;5066422;28;20028;-64
2021/05/26 04:27:53;;;;;;;15.30;4.75;;;11.00;99.90;;;;;;5059569;28;20106;-64
2021/05/26 04:30:20;;;;;;;14.50;4.95;;;11.00;99.90;;;;;;5053145;28;20013;-64
2021/05/26 04:32:46;;;;;;;16.13;4.80;;;11.00;99.90;;;;;;5059864;28;20386;-64
2021/05/26 04:35:12;;;;;;;16.52;5.15;;;10.80;99.90;;;;;;5053097;28;20025;-64
2021/05/26 04:37:38;;;;;;;12.05;5.13;;;10.70;99.90;;;;;;5059304;28;20077;-64
2021/05/26 04:40:04;;;;;;;17.88;5.07;;;10.80;99.90;;;;;;5062470;28;20883;-64
2021/05/26 04:42:30;;;;;;;21.67;5.15;;;10.70;99.90;;;;;;5060341;28;20060;-64
2021/05/26 04:44:56;;;;;;;14.32;5.30;;;10.80;99.90;;;;;;5051101;28;20106;-64
2021/05/26 04:47:21;;;;;;;12.43;4.63;;;10.80;99.90;;;;;;5061423;28;20151;-64
2021/05/26 04:49:47;;;;;;;16.48;5.20;;;10.80;99.90;;;;;;5056747;28;20036;-64
2021/05/26 04:52:13;;;;;;;14.90;5.18;;;10.80;99.90;;;;;;5065566;28;20586;-64
2021/05/26 04:54:38;;;;;;;18.88;5.05;;;10.80;99.90;;;;;;5070703;28;20340;-65
2021/05/26 04:57:05;;;;;;;16.65;5.25;;;10.70;99.90;;;;;;5062115;28;20035;-64
2021/05/26 04:59:30;;;;;;;12.75;5.25;;;10.80;99.90;;;;;;5050786;28;20049;-64
2021/05/26 05:01:56;;;;;;;12.77;5.13;;;10.70;99.90;;;;;;5061452;28;20078;-63
2021/05/26 05:04:22;;;;;;;11.50;4.55;;;10.70;99.90;;;;;;5066410;28;20096;-64
2021/05/26 05:06:48;;;;;;;18.25;5.13;;;10.80;99.90;;;;;;5065129;28;20036;-65
2021/05/26 05:09:13;;;;;;;16.17;5.13;;;10.70;99.90;;;;;;5068661;28;20033;-64
2021/05/26 05:11:39;;;;;;;16.35;5.05;;;10.60;99.90;;;;;;5063354;28;20027;-63
2021/05/26 05:14:05;;;;;;;12.77;4.85;;;10.80;99.90;;;;;;5051560;28;20036;-64
2021/05/26 05:16:34;;;;;;;21.02;5.38;;;10.80;99.90;;;;;;5063334;28;20107;-64
2021/05/26 05:19:00;;;;;;;18.45;5.60;;;10.70;99.90;;;;;;5052421;28;20025;-64
2021/05/26 05:21:26;;;;;;;18.85;5.68;;;10.80;99.90;;;;;;5057421;28;20472;-64
2021/05/26 05:23:52;;;;;;;15.35;5.43;;;10.80;99.90;;;;;;5053228;28;20535;-62
2021/05/26 05:26:17;;;;;;;14.63;5.70;;;11.30;99.90;;;;;;5055878;28;20016;-62
2021/05/26 05:28:43;;;;;;;18.65;5.10;;;11.10;99.90;;;;;;5054467;28;20033;-61
2021/05/26 05:31:09;;;;;;;17.83;5.57;;;10.90;99.90;;;;;;5055445;28;20028;-62
2021/05/26 05:33:35;;;;;;;14.27;5.40;;;11.00;99.90;;;;;;5055450;28;20029;-62
2021/05/26 05:36:01;;;;;;;15.38;5.15;;;10.90;99.90;;;;;;5054097;28;20029;-62
2021/05/26 05:38:26;;;;;;;16.38;5.40;;;11.00;99.90;;;;;;5056235;28;20053;-62
2021/05/26 05:40:52;;;;;;;18.60;5.68;;;11.00;99.90;;;;;;5052446;28;20499;-62
2021/05/26 05:43:18;;;;;;;18.55;5.82;;;10.90;99.90;;;;;;5056740;28;20108;-62
2021/05/26 05:45:44;;;;;;;16.67;5.82;;;11.00;99.90;;;;;;5055898;28;20036;-62
2021/05/26 05:48:10;;;;;;;16.77;5.68;;;11.10;99.90;;;;;;5068080;28;20075;-62
2021/05/26 05:50:36;;;;;;;17.85;5.25;;;11.20;99.90;;;;;;5066627;28;20028;-62
2021/05/26 05:53:04;;;;;;;23.05;6.22;;;11.10;99.90;;;;;;5064944;28;20063;-62
2021/05/26 05:55:30;;;;;;;16.33;5.57;;;11.30;99.90;;;;;;5065789;28;20017;-61
2021/05/26 05:57:59;;;;;;;12.60;5.15;;;11.10;99.90;;;;;;5065622;28;20396;-62
2021/05/26 06:00:25;;;;;;;14.95;5.72;;;11.20;99.90;;;;;;5064952;28;20059;-61
2021/05/26 06:02:51;;;;;;;22.75;5.93;;;11.30;99.90;;;;;;5066712;28;20032;-61
2021/05/26 06:05:16;;;;;;;20.15;5.85;;;11.20;99.90;;;;;;5068765;28;20028;-62
2021/05/26 06:07:42;;;;;;;24.45;6.90;;;11.10;99.90;;;;;;5066729;28;20037;-62
2021/05/26 06:10:09;;;;;;;20.70;5.65;;;11.30;99.90;;;;;;5066541;28;20035;-62
2021/05/26 06:12:35;;;;;;;21.17;6.20;;;11.30;99.90;;;;;;5059233;28;20025;-62
2021/05/26 06:15:01;;;;;;;21.63;6.07;;;11.20;99.90;;;;;;5049853;28;20025;-63
2021/05/26 06:17:26;;;;;;;23.25;6.35;;;11.10;99.90;;;;;;5042251;28;20029;-62
2021/05/26 06:19:52;;;;;;;19.42;6.00;;;11.60;99.90;;;;;;5048280;28;20543;-62
2021/05/26 06:22:18;;;;;;;21.08;6.40;;;11.30;99.90;;;;;;5060200;28;20083;-63
2021/05/26 06:24:43;;;;;;;21.23;6.35;;;11.30;99.90;;;;;;5049686;28;20078;-63
2021/05/26 06:27:09;;;;;;;19.67;6.13;;;11.50;99.90;;;;;;5060445;28;20036;-63
2021/05/26 06:29:35;;;;;;;23.80;6.57;;;11.50;99.90;;;;;;5064584;28;20583;-64
2021/05/26 06:32:00;;;;;;;21.98;6.43;;;11.70;99.90;;;;;;5065920;28;20052;-63
2021/05/26 06:34:26;;;;;;;16.55;6.28;;;11.70;99.90;;;;;;5068710;28;20028;-63
2021/05/26 06:36:52;;;;;;;16.42;5.68;;;11.80;99.90;;;;;;5061817;28;20040;-63
2021/05/26 06:39:17;;;;;;;22.27;7.47;;;11.80;99.90;;;;;;5067091;28;20583;-63
2021/05/26 06:41:43;;;;;;;19.30;6.93;;;11.80;99.90;;;;;;5062275;28;20078;-63
2021/05/26 06:44:09;;;;;;;25.23;6.50;;;11.90;99.90;;;;;;5050208;28;20036;-63
2021/05/26 06:46:34;;;;;;;22.13;6.32;;;11.90;99.90;;;;;;5057825;28;20025;-63
2021/05/26 06:49:00;;;;;;;19.92;7.07;;;12.10;99.90;;;;;;5050649;28;20129;-63
2021/05/26 06:51:26;;;;;;;16.92;6.22;;;12.00;99.90;;;;;;5056426;28;20066;-63
2021/05/26 06:53:52;;;;;;;25.73;6.80;;;12.10;99.90;;;;;;5054129;28;20053;-63
2021/05/26 06:56:18;;;;;;;16.13;6.53;;;12.10;99.90;;;;;;5058743;28;20047;-63
2021/05/26 06:58:44;;;;;;;22.65;6.78;;;12.20;99.90;;;;;;5057300;28;20394;-63
2021/05/26 07:01:09;;;;;;;26.58;6.32;;;12.30;99.90;;;;;;5057864;28;20024;-63
2021/05/26 07:03:35;;;;;;;32.05;6.40;;;12.30;99.90;;;;;;5058728;28;20028;-63
2021/05/26 07:06:01;;;;;;;25.40;6.28;;;12.30;99.90;;;;;;5057974;28;20091;-65
2021/05/26 07:08:26;;;;;;;20.48;6.28;;;12.50;99.90;;;;;;5052334;28;20033;-64
2021/05/26 07:10:52;;;;;;;15.90;5.82;;;12.50;99.90;;;;;;5055446;28;20102;-75
2021/05/26 07:13:18;;;;;;;16.73;6.03;;;12.40;99.90;;;;;;5060544;28;20029;-63
2021/05/26 07:15:43;;;;;;;24.73;6.68;;;12.60;99.90;;;;;;5054801;28;20643;-63
2021/05/26 07:18:09;;;;;;;16.85;6.25;;;12.90;99.90;;;;;;5061865;28;20112;-63
2021/05/26 07:20:36;;;;;;;18.55;5.53;;;12.90;99.90;;;;;;5054735;28;20421;-63
2021/05/26 07:23:02;;;;;;;21.35;6.85;;;13.00;99.90;;;;;;5060822;28;20033;-63
2021/05/26 07:25:28;;;;;;;26.60;6.38;;;13.10;99.90;;;;;;5054536;28;20020;-64
2021/05/26 07:27:54;;;;;;;37.15;6.47;;;13.30;99.90;;;;;;5061112;28;20033;-63
2021/05/26 07:30:20;;;;;;;13.50;5.25;;;13.50;99.90;;;;;;5054655;28;20021;-63
2021/05/26 07:32:48;;;;;;;25.83;7.07;;;13.50;99.90;;;;;;5061197;28;20025;-63
2021/05/26 07:35:15;;;;;;;30.30;7.15;;;13.40;99.90;;;;;;5054303;28;20017;-63
2021/05/26 07:37:41;;;;;;;21.45;5.95;;;13.60;99.90;;;;;;5060787;28;20086;-63
2021/05/26 07:40:08;;;;;;;21.35;5.88;;;13.90;99.90;;;;;;5053266;28;20025;-63
2021/05/26 07:42:34;;;;;;;26.10;6.03;;;13.90;99.90;;;;;;5061983;28;20024;-63
2021/05/26 07:45:00;;;;;;;28.80;6.47;;;13.90;99.90;;;;;;5052177;28;20074;-63
2021/05/26 07:47:25;;;;;;;18.02;6.22;;;14.30;99.90;;;;;;5062969;28;20060;-63
2021/05/26 07:49:52;;;;;;;21.10;5.50;;;14.20;99.90;;;;;;5050442;28;20038;-63
2021/05/26 07:52:21;;;;;;;15.95;5.47;;;13.70;99.90;;;;;;5062604;28;20025;-64
2021/05/26 07:54:50;;;;;;;17.35;5.88;;;14.00;99.90;;;;;;5051766;28;20123;-63
2021/05/26 07:57:16;;;;;;;17.60;6.15;;;14.00;99.90;;;;;;5062364;28;20017;-65
2021/05/26 07:59:43;;;;;;;16.70;5.30;;;14.20;99.90;;;;;;5051941;28;20076;-64
2021/05/26 08:02:11;;;;;;;15.25;5.22;;;14.30;99.90;;;;;;5063192;28;20024;-63
2021/05/26 08:04:37;;;;;;;19.85;6.03;;;14.10;99.90;;;;;;5051524;28;20037;-64
2021/05/26 08:07:02;;;;;;;14.52;5.43;;;14.20;99.90;;;;;;5062145;28;20040;-64
2021/05/26 08:09:28;;;;;;;19.25;6.07;;;14.30;99.90;;;;;;5051272;28;20588;-63
2021/05/26 08:11:54;;;;;;;20.00;5.57;;;14.30;99.90;;;;;;5062115;28;20448;-64
2021/05/26 08:14:19;;;;;;;19.90;5.40;;;14.30;99.90;;;;;;5051374;28;20040;-63
2021/05/26 08:16:45;;;;;;;16.35;5.30;;;14.30;99.90;;;;;;5061581;28;20027;-64
2021/05/26 08:19:11;;;;;;;17.30;5.22;;;14.30;99.90;;;;;;5052557;28;20071;-63
2021/05/26 08:21:39;;;;;;;18.95;4.93;;;14.20;99.90;;;;;;5059644;28;20032;-63
2021/05/26 08:24:06;;;;;;;19.40;5.70;;;14.60;99.90;;;;;;5053332;28;20070;-64
2021/05/26 08:26:32;;;;;;;21.02;5.10;;;14.50;99.90;;;;;;5058995;28;20023;-63
2021/05/26 08:28:58;;;;;;;15.88;5.25;;;14.50;99.90;;;;;;5065286;28;20036;-70
2021/05/26 08:31:24;;;;;;;13.80;5.28;;;14.90;99.90;;;;;;5064651;28;20013;-64
2021/05/26 08:33:49;;;;;;;22.52;6.22;;;15.00;99.90;;;;;;5055341;28;20029;-63
2021/05/26 08:36:15;;;;;;;21.67;5.20;;;15.10;99.90;;;;;;5056174;28;20397;-64
2021/05/26 08:38:42;;;;;;;23.63;5.97;;;15.10;99.90;;;;;;5056341;28;20037;-63
2021/05/26 08:41:10;;;;;;;14.18;5.30;;;15.00;99.90;;;;;;5055144;28;20024;-64
2021/05/26 08:43:39;;;;;;;15.85;4.65;;;14.90;99.90;;;;;;5056865;28;20110;-63
2021/05/26 08:46:05;;;;;;;18.90;5.70;;;15.10;99.90;;;;;;5054885;28;20021;-63
2021/05/26 08:48:33;;;;;;;16.33;5.15;;;15.30;99.90;;;;;;5057857;28;20064;-63
2021/05/26 08:51:01;;;;;;;10.13;4.10;;;15.10;99.90;;;;;;5054303;28;20090;-64
2021/05/26 08:53:27;;;;;;;11.90;4.10;;;14.90;99.90;;;;;;5057641;28;20227;-64
2021/05/26 08:55:53;;;;;;;14.43;4.75;;;14.80;99.90;;;;;;5052538;28;20029;-64
2021/05/26 08:58:19;;;;;;;15.55;5.15;;;15.00;99.90;;;;;;5058945;28;20485;-64
2021/05/26 09:00:45;;;;;;;27.27;5.20;;;15.20;99.90;;;;;;5056083;28;20097;-64
2021/05/26 09:03:11;;;;;;;32.65;6.05;;;15.40;99.90;;;;;;5058932;28;20033;-63
2021/05/26 09:05:37;;;;;;;21.90;5.18;;;15.30;99.90;;;;;;5050892;28;20067;-63
2021/05/26 09:08:15;;;;;;;17.38;5.30;;;15.60;99.90;;;;;;5059234;28;20033;-64
2021/05/26 09:10:48;;;;;;;16.33;5.28;;;15.70;99.90;;;;;;5051972;28;20032;-62
2021/05/26 09:13:34;;;;;;;14.43;5.38;;;15.60;99.90;;;;;;5067435;28;20396;-63
2021/05/26 09:16:07;;;;;;;12.98;4.70;;;16.10;99.90;;;;;;5065535;28;20028;-63
2021/05/26 09:18:56;;;;;;;15.95;5.07;;;16.20;99.90;;;;;;5071325;28;20599;-63
2021/05/26 09:21:55;;;;;;;15.15;5.00;;;16.20;99.90;;;;;;5071998;28;20023;-63
2021/05/26 09:24:21;;;;;;;14.40;4.22;;;16.10;99.90;;;;;;5014764;28;20115;-62
2021/05/26 09:26:55;;;;;;;12.57;4.70;;;16.30;99.90;;;;;;5061362;28;20116;-63
2021/05/26 09:29:26;;;;;;;15.40;4.72;;;16.30;99.90;;;;;;5050317;28;20033;-63
2021/05/26 09:32:14;;;;;;;18.10;4.68;;;16.30;99.90;;;;;;5056907;28;20157;-63
2021/05/26 09:34:45;;;;;;;17.52;4.95;;;15.90;99.90;;;;;;5069236;28;20424;-64
2021/05/26 09:37:19;;;;;;;20.85;5.18;;;16.20;99.90;;;;;;5060254;28;20487;-65
2021/05/26 09:39:47;;;;;;;16.05;4.72;;;16.40;99.90;;;;;;5050141;28;20036;-65
2021/05/26 09:42:37;;;;;;;13.77;4.88;;;16.50;99.90;;;;;;5060598;28;20621;-65
2021/05/26 09:45:09;;;;;;;16.95;5.20;;;16.80;99.90;;;;;;5050429;28;20025;-65
2021/05/26 09:47:37;;;;;;;19.02;4.70;;;16.30;99.90;;;;;;5059592;28;20032;-64
2021/05/26 09:50:19;;;;;;;16.75;5.13;;;16.90;99.90;;;;;;5068064;28;20020;-69
2021/05/26 09:53:04;;;;;;;10.43;4.68;;;16.70;99.90;;;;;;5062871;28;20051;-65
2021/05/26 09:55:37;;;;;;;18.20;4.37;;;16.90;99.90;;;;;;5065291;28;20036;-65
2021/05/26 09:58:09;;;;;;;15.65;4.65;;;17.80;99.90;;;;;;5073592;28;20044;-65
2021/05/26 10:00:36;;;;;;;14.98;4.60;;;17.10;99.90;;;;;;5066746;28;20507;-65
2021/05/26 10:03:03;;;;;;;19.30;4.75;;;17.00;99.90;;;;;;5071272;28;20035;-64
2021/05/26 10:05:29;;;;;;;16.48;4.72;;;17.20;99.90;;;;;;5065653;28;20021;-64
2021/05/26 10:07:59;;;;;;;18.73;5.32;;;16.90;99.90;;;;;;5065302;28;20037;-64
2021/05/26 10:10:29;;;;;;;14.90;4.43;;;17.10;99.90;;;;;;5066711;28;20043;-64
2021/05/26 10:13:05;;;;;;;19.45;4.78;;;17.30;99.90;;;;;;5062399;28;20036;-64
2021/05/26 10:15:33;;;;;;;15.90;4.20;;;18.30;99.90;;;;;;5051732;28;20044;-64
2021/05/26 10:18:01;;;;;;;16.10;4.55;;;18.10;99.90;;;;;;5058314;28;20033;-64
2021/05/26 10:20:45;;;;;;;15.88;4.60;;;17.90;99.90;;;;;;5051974;28;20008;-64
2021/05/26 10:23:17;;;;;;;10.55;4.07;;;18.40;99.90;;;;;;5067653;28;20052;-64
2021/05/26 10:25:44;;;;;;;14.43;4.20;;;18.50;99.90;;;;;;5060557;28;20572;-64
2021/05/26 10:28:32;;;;;;;11.32;3.90;;;18.60;99.90;;;;;;5067501;28;20477;-64
2021/05/26 10:31:00;;;;;;;14.68;4.35;;;18.40;99.90;;;;;;5068229;28;20020;-64
2021/05/26 10:33:44;;;;;;;17.58;5.32;;;18.20;99.90;;;;;;5070392;28;20023;-64
2021/05/26 10:36:10;;;;;;;15.10;4.03;;;18.60;99.90;;;;;;5069732;28;20067;-65
2021/05/26 10:38:59;;;;;;;16.63;4.32;;;18.30;99.90;;;;;;5058695;28;20053;-65
2021/05/26 10:41:45;;;;;;;11.18;4.40;;;18.50;99.90;;;;;;5059169;28;20485;-64
2021/05/26 10:44:10;;;;;;;11.35;4.20;;;19.00;99.90;;;;;;5054068;28;20029;-65
2021/05/26 10:46:37;;;;;;;11.27;4.13;;;18.90;99.90;;;;;;5061546;28;20054;-65
2021/05/26 10:49:10;;;;;;;14.02;4.35;;;19.20;99.90;;;;;;5055751;28;20033;-65
2021/05/26 10:51:57;;;;;;;13.63;4.50;;;18.80;99.90;;;;;;5061182;28;20024;-65
2021/05/26 10:54:40;;;;;;;13.07;4.78;;;19.10;99.90;;;;;;5052944;28;20024;-65
2021/05/26 10:57:09;;;;;;;10.90;4.68;;;18.60;99.90;;;;;;5063656;28;20374;-65
2021/05/26 10:59:36;;;;;;;15.02;5.03;;;19.20;99.90;;;;;;5066963;28;20462;-65
2021/05/26 11:02:02;;;;;;;12.77;4.57;;;19.50;99.90;;;;;;5065620;28;20082;-65
2021/05/26 11:04:29;;;;;;;14.45;4.55;;;19.30;99.90;;;;;;5052710;28;20048;-65
2021/05/26 11:07:21;;;;;;;15.40;4.55;;;19.20;99.90;;;;;;5070086;28;20039;-65
2021/05/26 11:10:01;;;;;;;8.05;4.05;;;19.20;99.90;;;;;;5068948;28;20481;-64
2021/05/26 11:12:27;;;;;;;12.35;4.03;;;19.60;99.90;;;;;;5070336;28;20100;-64
2021/05/26 11:14:54;;;;;;;11.35;4.75;;;19.80;99.90;;;;;;5071897;28;20385;-65
2021/05/26 11:17:26;;;;;;;18.95;4.57;;;20.10;99.90;;;;;;5063102;28;20028;-65
2021/05/26 11:20:13;;;;;;;12.18;4.35;;;19.90;99.90;;;;;;5052606;28;20018;-67
2021/05/26 11:22:39;;;;;;;14.75;4.25;;;20.00;99.90;;;;;;5064197;28;20043;-67
2021/05/26 11:25:07;;;;;;;11.57;4.28;;;20.20;99.90;;;;;;5069984;28;20025;-67
2021/05/26 11:27:33;;;;;;;17.77;4.47;;;19.50;99.90;;;;;;5068951;28;20053;-67
2021/05/26 11:30:03;;;;;;;12.70;4.30;;;19.90;99.90;;;;;;5070779;28;20024;-67
2021/05/26 11:32:30;;;;;;;13.23;4.25;;;19.80;99.90;;;;;;5050761;28;20067;-67
2021/05/26 11:34:57;;;;;;;12.65;4.05;;;19.90;99.90;;;;;;5070677;28;20028;-67
2021/05/26 11:37:31;;;;;;;8.73;3.97;;;20.00;99.90;;;;;;5069686;28;20041;-67
2021/05/26 11:39:59;;;;;;;12.95;4.18;;;20.00;99.40;;;;;;5052038;28;20048;-67
2021/05/26 11:42:27;;;;;;;16.17;4.30;;;19.60;98.90;;;;;;5065780;28;20087;-68
2021/05/26 11:45:01;;;;;;;10.25;3.88;;;20.00;99.90;;;;;;5070806;28;20013;-67
2021/05/26 11:47:41;;;;;;;16.83;4.55;;;20.30;99.50;;;;;;5067500;28;20025;-67
2021/05/26 11:50:13;;;;;;;12.35;4.43;;;20.30;99.90;;;;;;5070408;28;20049;-67
2021/05/26 11:52:59;;;;;;;10.57;4.65;;;20.00;99.90;;;;;;5061849;28;20063;-67
2021/05/26 11:55:25;;;;;;;14.05;4.32;;;20.20;99.70;;;;;;5054497;28;20056;-67
2021/05/26 11:57:53;;;;;;;14.75;4.60;;;20.60;99.90;;;;;;5042766;28;20083;-68
2021/05/26 12:00:27;;;;;;;13.63;5.13;;;20.60;99.70;;;;;;5053822;28;20025;-67
2021/05/26 12:03:02;;;;;;;13.60;4.28;;;20.80;98.40;;;;;;5060446;28;20425;-67
2021/05/26 12:05:58;;;;;;;11.75;4.32;;;20.80;98.90;;;;;;5057165;28;20033;-67
2021/05/26 12:08:26;;;;;;;11.70;4.25;;;20.70;99.90;;;;;;5059146;28;20513;-67
2021/05/26 12:11:01;;;;;;;15.57;4.10;;;21.30;99.90;;;;;;5053572;28;20021;-67
2021/05/26 12:13:31;;;;;;;13.25;4.20;;;21.20;99.90;;;;;;5063704;28;20036;-67
2021/05/26 12:16:01;;;;;;;12.65;4.10;;;21.10;99.90;;;;;;5065287;28;20096;-68
2021/05/26 12:18:28;;;;;;;12.18;4.18;;;20.70;99.80;;;;;;5059691;28;20036;-68
2021/05/26 12:20:55;;;;;;;15.15;4.63;;;21.10;99.80;;;;;;5053889;28;20017;-67
2021/05/26 12:23:44;;;;;;;13.10;4.40;;;21.60;99.00;;;;;;5062655;28;20067;-67
2021/05/26 12:26:27;;;;;;;10.68;4.10;;;21.00;99.30;;;;;;5064050;28;20028;-67
2021/05/26 12:28:55;;;;;;;12.35;4.03;;;21.10;98.20;;;;;;5055217;28;20037;-68
2021/05/26 12:31:22;;;;;;;7.97;3.90;;;21.50;98.40;;;;;;5056683;28;20017;-67
2021/05/26 12:33:53;;;;;;;33.42;5.07;;;21.90;98.80;;;;;;5056051;28;20033;-67
2021/05/26 12:36:21;;;;;;;12.70;4.22;;;22.00;98.70;;;;;;5056087;28;20024;-68
2021/05/26 12:38:47;;;;;;;16.60;4.63;;;21.90;97.60;;;;;;5055717;28;20041;-67
2021/05/26 12:41:19;;;;;;;14.40;4.25;;;21.50;97.70;;;;;;5055167;28;20524;-67
2021/05/26 12:43:45;;;;;;;14.30;4.35;;;22.10;99.20;;;;;;5056039;28;20074;-67
2021/05/26 12:46:10;;;;;;;13.45;4.10;;;21.90;98.40;;;;;;5055291;28;20028;-67